sensor_id;sensor_type;location;lat;lon;timestamp;P1;durP1;ratioP1;P2;durP2;ratioP2
72301;SDS011;60235;52.234;5.186;2022-08-14T00:00:00;9.20;;;5.25;;
72301;SDS011;60235;52.234;5.186;2022-08-14T00:02:27;10.15;;;5.13;;
72301;SDS011;60235;52.234;5.186;2022-08-14T00:04:53;10.75;;;5.47;;
72301;SDS011;60235;52.234;5.186;2022-08-14T00:07:19;8.20;;;4.65;;
72301;SDS011;60235;52.234;5.186;2022-08-14T00:09:45;9.65;;;5.32;;
72301;SDS011;60235;52.234;5.186;2022-08-14T00:12:11;10.25;;;5.20;;
72301;SDS011;60235;52.234;5.186;2022-08-14T00:14:38;10.10;;;5.20;;
72301;SDS011;60235;52.234;5.186;2022-08-14T00:17:05;10.20;;;4.97;;
72301;SDS011;60235;52.234;5.186;2022-08-14T00:19:31;8.55;;;5.13;;
72301;SDS011;60235;52.234;5.186;2022-08-14T00:21:57;9.68;;;5.45;;
72301;SDS011;60235;52.234;5.186;2022-08-14T00:24:23;11.48;;;5.78;;
72301;SDS011;60235;52.234;5.186;2022-08-14T00:26:49;9.73;;;5.18;;
72301;SDS011;60235;52.234;5.186;2022-08-14T00:29:15;9.80;;;5.35;;
72301;SDS011;60235;52.234;5.186;2022-08-14T00:31:41;11.35;;;5.07;;
72301;SDS011;60235;52.234;5.186;2022-08-14T00:34:07;9.68;;;5.32;;
72301;SDS011;60235;52.234;5.186;2022-08-14T00:36:33;9.38;;;5.40;;
72301;SDS011;60235;52.234;5.186;2022-08-14T00:39:00;10.32;;;5.55;;
72301;SDS011;60235;52.234;5.186;2022-08-14T00:41:30;10.65;;;5.05;;
72301;SDS011;60235;52.234;5.186;2022-08-14T00:43:56;9.27;;;5.75;;
72301;SDS011;60235;52.234;5.186;2022-08-14T00:46:22;10.18;;;5.10;;
72301;SDS011;60235;52.234;5.186;2022-08-14T00:48:48;9.10;;;5.32;;
72301;SDS011;60235;52.234;5.186;2022-08-14T00:51:14;11.07;;;5.55;;
72301;SDS011;60235;52.234;5.186;2022-08-14T00:53:40;15.15;;;6.03;;
72301;SDS011;60235;52.234;5.186;2022-08-14T00:56:06;9.40;;;5.53;;
72301;SDS011;60235;52.234;5.186;2022-08-14T00:58:33;10.27;;;5.50;;
72301;SDS011;60235;52.234;5.186;2022-08-14T01:01:00;9.88;;;5.28;;
72301;SDS011;60235;52.234;5.186;2022-08-14T01:03:27;12.75;;;5.82;;
72301;SDS011;60235;52.234;5.186;2022-08-14T01:05:54;9.23;;;5.55;;
72301;SDS011;60235;52.234;5.186;2022-08-14T01:08:21;8.32;;;5.45;;
72301;SDS011;60235;52.234;5.186;2022-08-14T01:10:47;12.20;;;5.97;;
72301;SDS011;60235;52.234;5.186;2022-08-14T01:13:21;10.50;;;5.88;;
72301;SDS011;60235;52.234;5.186;2022-08-14T01:15:49;10.60;;;6.13;;
72301;SDS011;60235;52.234;5.186;2022-08-14T01:18:15;11.60;;;5.57;;
72301;SDS011;60235;52.234;5.186;2022-08-14T01:21:00;12.50;;;5.18;;
72301;SDS011;60235;52.234;5.186;2022-08-14T01:23:30;10.10;;;5.47;;
72301;SDS011;60235;52.234;5.186;2022-08-14T01:25:57;11.15;;;5.60;;
72301;SDS011;60235;52.234;5.186;2022-08-14T01:28:23;11.52;;;5.93;;
72301;SDS011;60235;52.234;5.186;2022-08-14T01:30:52;9.27;;;5.57;;
72301;SDS011;60235;52.234;5.186;2022-08-14T01:33:24;11.48;;;5.93;;
72301;SDS011;60235;52.234;5.186;2022-08-14T01:35:53;10.50;;;5.93;;
72301;SDS011;60235;52.234;5.186;2022-08-14T01:38:21;10.38;;;5.22;;
72301;SDS011;60235;52.234;5.186;2022-08-14T01:40:47;10.38;;;6.00;;
72301;SDS011;60235;52.234;5.186;2022-08-14T01:43:13;10.70;;;5.82;;
72301;SDS011;60235;52.234;5.186;2022-08-14T01:45:42;10.50;;;5.47;;
72301;SDS011;60235;52.234;5.186;2022-08-14T01:48:09;12.73;;;5.90;;
72301;SDS011;60235;52.234;5.186;2022-08-14T01:50:36;10.43;;;5.72;;
72301;SDS011;60235;52.234;5.186;2022-08-14T01:53:02;14.40;;;6.05;;
72301;SDS011;60235;52.234;5.186;2022-08-14T01:55:28;12.32;;;5.82;;
72301;SDS011;60235;52.234;5.186;2022-08-14T01:57:56;13.15;;;6.13;;
72301;SDS011;60235;52.234;5.186;2022-08-14T02:00:23;12.70;;;6.05;;
72301;SDS011;60235;52.234;5.186;2022-08-14T02:02:49;10.15;;;5.75;;
72301;SDS011;60235;52.234;5.186;2022-08-14T02:05:15;11.38;;;6.15;;
72301;SDS011;60235;52.234;5.186;2022-08-14T02:07:41;11.13;;;6.07;;
72301;SDS011;60235;52.234;5.186;2022-08-14T02:10:09;9.50;;;5.82;;
72301;SDS011;60235;52.234;5.186;2022-08-14T02:12:35;10.77;;;6.07;;
72301;SDS011;60235;52.234;5.186;2022-08-14T02:15:03;10.68;;;6.43;;
72301;SDS011;60235;52.234;5.186;2022-08-14T02:17:32;9.70;;;5.72;;
72301;SDS011;60235;52.234;5.186;2022-08-14T02:19:58;11.32;;;6.28;;
72301;SDS011;60235;52.234;5.186;2022-08-14T02:22:24;12.20;;;6.22;;
72301;SDS011;60235;52.234;5.186;2022-08-14T02:24:50;11.15;;;6.53;;
72301;SDS011;60235;52.234;5.186;2022-08-14T02:27:16;10.20;;;6.03;;
72301;SDS011;60235;52.234;5.186;2022-08-14T02:29:44;11.85;;;6.70;;
72301;SDS011;60235;52.234;5.186;2022-08-14T02:32:10;12.45;;;6.55;;
72301;SDS011;60235;52.234;5.186;2022-08-14T02:34:36;13.38;;;6.85;;
72301;SDS011;60235;52.234;5.186;2022-08-14T02:37:06;10.05;;;6.40;;
72301;SDS011;60235;52.234;5.186;2022-08-14T02:39:34;10.77;;;6.63;;
72301;SDS011;60235;52.234;5.186;2022-08-14T02:42:00;12.52;;;6.72;;
72301;SDS011;60235;52.234;5.186;2022-08-14T02:44:26;10.88;;;7.07;;
72301;SDS011;60235;52.234;5.186;2022-08-14T02:46:53;10.45;;;6.53;;
72301;SDS011;60235;52.234;5.186;2022-08-14T02:49:22;11.65;;;6.53;;
72301;SDS011;60235;52.234;5.186;2022-08-14T02:51:51;11.18;;;6.25;;
72301;SDS011;60235;52.234;5.186;2022-08-14T02:54:18;11.13;;;6.60;;
72301;SDS011;60235;52.234;5.186;2022-08-14T02:56:44;13.00;;;6.78;;
72301;SDS011;60235;52.234;5.186;2022-08-14T02:59:10;13.23;;;7.35;;
72301;SDS011;60235;52.234;5.186;2022-08-14T03:01:38;14.57;;;7.43;;
72301;SDS011;60235;52.234;5.186;2022-08-14T03:04:05;14.00;;;7.05;;
72301;SDS011;60235;52.234;5.186;2022-08-14T03:06:34;11.63;;;6.80;;
72301;SDS011;60235;52.234;5.186;2022-08-14T03:09:02;10.38;;;6.75;;
72301;SDS011;60235;52.234;5.186;2022-08-14T03:11:28;13.35;;;7.32;;
72301;SDS011;60235;52.234;5.186;2022-08-14T03:13:55;12.30;;;6.95;;
72301;SDS011;60235;52.234;5.186;2022-08-14T03:16:22;12.85;;;7.18;;
72301;SDS011;60235;52.234;5.186;2022-08-14T03:18:49;11.10;;;7.13;;
72301;SDS011;60235;52.234;5.186;2022-08-14T03:21:17;12.95;;;6.68;;
72301;SDS011;60235;52.234;5.186;2022-08-14T03:23:45;12.93;;;7.28;;
72301;SDS011;60235;52.234;5.186;2022-08-14T03:26:13;12.70;;;7.22;;
72301;SDS011;60235;52.234;5.186;2022-08-14T03:28:43;14.48;;;7.60;;
72301;SDS011;60235;52.234;5.186;2022-08-14T03:31:10;12.10;;;7.18;;
72301;SDS011;60235;52.234;5.186;2022-08-14T03:33:37;12.98;;;7.32;;
72301;SDS011;60235;52.234;5.186;2022-08-14T03:36:09;13.05;;;7.05;;
72301;SDS011;60235;52.234;5.186;2022-08-14T03:38:43;13.52;;;7.53;;
72301;SDS011;60235;52.234;5.186;2022-08-14T03:41:10;12.65;;;7.32;;
72301;SDS011;60235;52.234;5.186;2022-08-14T03:43:45;12.43;;;7.78;;
72301;SDS011;60235;52.234;5.186;2022-08-14T03:46:12;13.20;;;7.75;;
72301;SDS011;60235;52.234;5.186;2022-08-14T03:48:39;14.77;;;7.38;;
72301;SDS011;60235;52.234;5.186;2022-08-14T03:51:06;13.27;;;7.15;;
72301;SDS011;60235;52.234;5.186;2022-08-14T03:53:36;15.15;;;7.93;;
72301;SDS011;60235;52.234;5.186;2022-08-14T03:56:05;15.18;;;8.10;;
72301;SDS011;60235;52.234;5.186;2022-08-14T03:58:31;11.90;;;7.60;;
72301;SDS011;60235;52.234;5.186;2022-08-14T04:00:58;11.65;;;7.07;;
72301;SDS011;60235;52.234;5.186;2022-08-14T04:03:24;14.00;;;7.18;;
72301;SDS011;60235;52.234;5.186;2022-08-14T04:05:51;11.45;;;7.38;;
72301;SDS011;60235;52.234;5.186;2022-08-14T04:08:17;13.10;;;7.72;;
72301;SDS011;60235;52.234;5.186;2022-08-14T04:10:44;12.38;;;6.95;;
72301;SDS011;60235;52.234;5.186;2022-08-14T04:13:11;14.70;;;7.90;;
72301;SDS011;60235;52.234;5.186;2022-08-14T04:15:41;11.07;;;6.95;;
72301;SDS011;60235;52.234;5.186;2022-08-14T04:18:08;13.90;;;7.30;;
72301;SDS011;60235;52.234;5.186;2022-08-14T04:20:34;13.07;;;7.18;;
72301;SDS011;60235;52.234;5.186;2022-08-14T04:23:00;13.38;;;7.30;;
72301;SDS011;60235;52.234;5.186;2022-08-14T04:25:27;16.35;;;7.78;;
72301;SDS011;60235;52.234;5.186;2022-08-14T04:27:55;14.77;;;7.85;;
72301;SDS011;60235;52.234;5.186;2022-08-14T04:30:21;13.40;;;7.43;;
72301;SDS011;60235;52.234;5.186;2022-08-14T04:32:48;14.73;;;7.60;;
72301;SDS011;60235;52.234;5.186;2022-08-14T04:35:15;11.63;;;7.55;;
72301;SDS011;60235;52.234;5.186;2022-08-14T04:37:41;13.70;;;7.95;;
72301;SDS011;60235;52.234;5.186;2022-08-14T04:40:26;11.52;;;7.68;;
72301;SDS011;60235;52.234;5.186;2022-08-14T04:43:10;13.15;;;8.07;;
72301;SDS011;60235;52.234;5.186;2022-08-14T04:45:55;13.68;;;7.20;;
72301;SDS011;60235;52.234;5.186;2022-08-14T04:48:21;12.68;;;7.18;;
72301;SDS011;60235;52.234;5.186;2022-08-14T04:50:48;12.88;;;7.38;;
72301;SDS011;60235;52.234;5.186;2022-08-14T04:53:15;13.25;;;7.68;;
72301;SDS011;60235;52.234;5.186;2022-08-14T04:55:42;14.57;;;8.07;;
72301;SDS011;60235;52.234;5.186;2022-08-14T04:58:19;17.05;;;8.23;;
72301;SDS011;60235;52.234;5.186;2022-08-14T05:00:46;11.30;;;7.22;;
72301;SDS011;60235;52.234;5.186;2022-08-14T05:03:16;14.57;;;8.18;;
72301;SDS011;60235;52.234;5.186;2022-08-14T05:05:45;14.52;;;8.05;;
72301;SDS011;60235;52.234;5.186;2022-08-14T05:08:11;14.43;;;8.82;;
72301;SDS011;60235;52.234;5.186;2022-08-14T05:10:39;14.70;;;8.63;;
72301;SDS011;60235;52.234;5.186;2022-08-14T05:13:05;11.35;;;7.55;;
72301;SDS011;60235;52.234;5.186;2022-08-14T05:15:36;14.13;;;8.40;;
72301;SDS011;60235;52.234;5.186;2022-08-14T05:18:03;14.00;;;9.05;;
72301;SDS011;60235;52.234;5.186;2022-08-14T05:20:30;16.25;;;8.30;;
72301;SDS011;60235;52.234;5.186;2022-08-14T05:22:56;13.40;;;8.48;;
72301;SDS011;60235;52.234;5.186;2022-08-14T05:25:23;15.43;;;7.90;;
72301;SDS011;60235;52.234;5.186;2022-08-14T05:27:49;14.52;;;8.50;;
72301;SDS011;60235;52.234;5.186;2022-08-14T05:30:15;13.45;;;8.10;;
72301;SDS011;60235;52.234;5.186;2022-08-14T05:32:42;14.77;;;7.93;;
72301;SDS011;60235;52.234;5.186;2022-08-14T05:35:08;12.65;;;8.18;;
72301;SDS011;60235;52.234;5.186;2022-08-14T05:37:35;14.10;;;8.35;;
72301;SDS011;60235;52.234;5.186;2022-08-14T05:40:04;14.52;;;8.55;;
72301;SDS011;60235;52.234;5.186;2022-08-14T05:42:32;15.15;;;8.38;;
72301;SDS011;60235;52.234;5.186;2022-08-14T05:44:58;14.65;;;8.15;;
72301;SDS011;60235;52.234;5.186;2022-08-14T05:47:24;14.90;;;8.95;;
72301;SDS011;60235;52.234;5.186;2022-08-14T05:49:50;13.82;;;8.15;;
72301;SDS011;60235;52.234;5.186;2022-08-14T05:52:16;15.15;;;8.80;;
72301;SDS011;60235;52.234;5.186;2022-08-14T05:54:42;13.45;;;8.48;;
72301;SDS011;60235;52.234;5.186;2022-08-14T05:57:08;13.48;;;9.10;;
72301;SDS011;60235;52.234;5.186;2022-08-14T05:59:34;14.32;;;8.27;;
72301;SDS011;60235;52.234;5.186;2022-08-14T06:02:00;13.55;;;8.30;;
72301;SDS011;60235;52.234;5.186;2022-08-14T06:04:26;14.02;;;8.70;;
72301;SDS011;60235;52.234;5.186;2022-08-14T06:06:53;12.50;;;7.90;;
72301;SDS011;60235;52.234;5.186;2022-08-14T06:09:19;16.30;;;9.05;;
72301;SDS011;60235;52.234;5.186;2022-08-14T06:11:45;13.75;;;8.57;;
72301;SDS011;60235;52.234;5.186;2022-08-14T06:14:11;14.20;;;8.52;;
72301;SDS011;60235;52.234;5.186;2022-08-14T06:16:37;13.52;;;8.80;;
72301;SDS011;60235;52.234;5.186;2022-08-14T06:19:03;15.00;;;8.63;;
72301;SDS011;60235;52.234;5.186;2022-08-14T06:21:30;16.63;;;9.20;;
72301;SDS011;60235;52.234;5.186;2022-08-14T06:23:56;16.48;;;9.90;;
72301;SDS011;60235;52.234;5.186;2022-08-14T06:26:22;17.55;;;8.52;;
72301;SDS011;60235;52.234;5.186;2022-08-14T06:28:49;14.23;;;9.27;;
72301;SDS011;60235;52.234;5.186;2022-08-14T06:31:15;13.40;;;9.10;;
72301;SDS011;60235;52.234;5.186;2022-08-14T06:33:41;15.90;;;8.90;;
72301;SDS011;60235;52.234;5.186;2022-08-14T06:36:07;18.58;;;9.13;;
72301;SDS011;60235;52.234;5.186;2022-08-14T06:38:33;15.00;;;8.68;;
72301;SDS011;60235;52.234;5.186;2022-08-14T06:40:59;14.68;;;9.77;;
72301;SDS011;60235;52.234;5.186;2022-08-14T06:43:25;16.40;;;8.75;;
72301;SDS011;60235;52.234;5.186;2022-08-14T06:45:51;16.30;;;9.13;;
72301;SDS011;60235;52.234;5.186;2022-08-14T06:48:18;14.38;;;9.70;;
72301;SDS011;60235;52.234;5.186;2022-08-14T06:50:45;15.48;;;9.32;;
72301;SDS011;60235;52.234;5.186;2022-08-14T06:53:11;15.88;;;9.70;;
72301;SDS011;60235;52.234;5.186;2022-08-14T06:55:39;13.93;;;9.05;;
72301;SDS011;60235;52.234;5.186;2022-08-14T06:58:09;16.75;;;8.73;;
72301;SDS011;60235;52.234;5.186;2022-08-14T07:00:35;15.07;;;8.90;;
72301;SDS011;60235;52.234;5.186;2022-08-14T07:03:01;17.85;;;9.73;;
72301;SDS011;60235;52.234;5.186;2022-08-14T07:05:46;16.17;;;10.30;;
72301;SDS011;60235;52.234;5.186;2022-08-14T07:10:46;14.02;;;9.25;;
72301;SDS011;60235;52.234;5.186;2022-08-14T07:13:12;15.98;;;9.30;;
72301;SDS011;60235;52.234;5.186;2022-08-14T07:15:39;13.70;;;9.23;;
72301;SDS011;60235;52.234;5.186;2022-08-14T07:18:06;13.38;;;8.45;;
72301;SDS011;60235;52.234;5.186;2022-08-14T07:20:32;15.10;;;9.13;;
72301;SDS011;60235;52.234;5.186;2022-08-14T07:23:02;13.02;;;9.00;;
72301;SDS011;60235;52.234;5.186;2022-08-14T07:25:29;15.50;;;9.05;;
72301;SDS011;60235;52.234;5.186;2022-08-14T07:27:55;13.57;;;8.70;;
72301;SDS011;60235;52.234;5.186;2022-08-14T07:30:21;14.68;;;8.98;;
72301;SDS011;60235;52.234;5.186;2022-08-14T07:32:47;13.60;;;8.63;;
72301;SDS011;60235;52.234;5.186;2022-08-14T07:35:13;13.13;;;7.75;;
72301;SDS011;60235;52.234;5.186;2022-08-14T07:37:39;13.88;;;7.22;;
72301;SDS011;60235;52.234;5.186;2022-08-14T07:40:06;10.90;;;7.35;;
72301;SDS011;60235;52.234;5.186;2022-08-14T07:42:32;14.25;;;8.60;;
72301;SDS011;60235;52.234;5.186;2022-08-14T07:44:59;14.32;;;7.57;;
72301;SDS011;60235;52.234;5.186;2022-08-14T07:47:25;15.63;;;7.93;;
72301;SDS011;60235;52.234;5.186;2022-08-14T07:49:59;13.82;;;7.78;;
72301;SDS011;60235;52.234;5.186;2022-08-14T07:52:26;13.43;;;8.05;;
72301;SDS011;60235;52.234;5.186;2022-08-14T07:54:52;13.63;;;7.82;;
72301;SDS011;60235;52.234;5.186;2022-08-14T07:57:18;13.52;;;7.90;;
72301;SDS011;60235;52.234;5.186;2022-08-14T07:59:44;17.55;;;8.20;;
72301;SDS011;60235;52.234;5.186;2022-08-14T08:02:12;13.65;;;8.07;;
72301;SDS011;60235;52.234;5.186;2022-08-14T08:04:40;12.43;;;7.55;;
72301;SDS011;60235;52.234;5.186;2022-08-14T08:07:08;12.93;;;8.15;;
72301;SDS011;60235;52.234;5.186;2022-08-14T08:09:34;15.43;;;8.73;;
72301;SDS011;60235;52.234;5.186;2022-08-14T08:12:01;14.65;;;7.55;;
72301;SDS011;60235;52.234;5.186;2022-08-14T08:14:30;16.08;;;8.13;;
72301;SDS011;60235;52.234;5.186;2022-08-14T08:16:57;16.20;;;8.18;;
72301;SDS011;60235;52.234;5.186;2022-08-14T08:19:24;12.32;;;7.32;;
72301;SDS011;60235;52.234;5.186;2022-08-14T08:21:50;13.40;;;7.90;;
72301;SDS011;60235;52.234;5.186;2022-08-14T08:24:18;12.95;;;8.13;;
72301;SDS011;60235;52.234;5.186;2022-08-14T08:26:44;10.70;;;7.35;;
72301;SDS011;60235;52.234;5.186;2022-08-14T08:29:17;11.98;;;7.00;;
72301;SDS011;60235;52.234;5.186;2022-08-14T08:31:46;13.43;;;7.15;;
72301;SDS011;60235;52.234;5.186;2022-08-14T08:34:14;13.73;;;7.97;;
72301;SDS011;60235;52.234;5.186;2022-08-14T08:36:41;11.00;;;8.35;;
72301;SDS011;60235;52.234;5.186;2022-08-14T08:39:07;12.82;;;7.13;;
72301;SDS011;60235;52.234;5.186;2022-08-14T08:44:05;11.52;;;7.43;;
72301;SDS011;60235;52.234;5.186;2022-08-14T08:46:31;12.50;;;7.57;;
72301;SDS011;60235;52.234;5.186;2022-08-14T08:48:57;13.80;;;7.85;;
72301;SDS011;60235;52.234;5.186;2022-08-14T08:51:24;13.43;;;7.30;;
72301;SDS011;60235;52.234;5.186;2022-08-14T08:53:57;12.43;;;7.53;;
72301;SDS011;60235;52.234;5.186;2022-08-14T08:56:37;13.18;;;7.50;;
72301;SDS011;60235;52.234;5.186;2022-08-14T08:59:14;12.85;;;8.15;;
72301;SDS011;60235;52.234;5.186;2022-08-14T09:01:40;11.18;;;7.35;;
72301;SDS011;60235;52.234;5.186;2022-08-14T09:04:06;12.25;;;7.20;;
72301;SDS011;60235;52.234;5.186;2022-08-14T09:06:42;12.77;;;6.68;;
72301;SDS011;60235;52.234;5.186;2022-08-14T09:11:49;12.75;;;6.82;;
72301;SDS011;60235;52.234;5.186;2022-08-14T09:14:18;15.45;;;6.65;;
72301;SDS011;60235;52.234;5.186;2022-08-14T09:16:44;9.90;;;6.90;;
72301;SDS011;60235;52.234;5.186;2022-08-14T09:19:10;10.07;;;6.53;;
72301;SDS011;60235;52.234;5.186;2022-08-14T09:21:37;10.32;;;5.95;;
72301;SDS011;60235;52.234;5.186;2022-08-14T09:24:03;13.20;;;6.55;;
72301;SDS011;60235;52.234;5.186;2022-08-14T09:26:30;12.15;;;6.30;;
72301;SDS011;60235;52.234;5.186;2022-08-14T09:28:56;11.57;;;6.55;;
72301;SDS011;60235;52.234;5.186;2022-08-14T09:31:22;11.70;;;6.60;;
72301;SDS011;60235;52.234;5.186;2022-08-14T09:36:26;11.40;;;6.50;;
72301;SDS011;60235;52.234;5.186;2022-08-14T09:39:12;10.32;;;6.03;;
72301;SDS011;60235;52.234;5.186;2022-08-14T09:47:13;10.60;;;5.97;;
72301;SDS011;60235;52.234;5.186;2022-08-14T09:49:39;9.70;;;6.55;;
72301;SDS011;60235;52.234;5.186;2022-08-14T09:52:08;11.38;;;6.22;;
72301;SDS011;60235;52.234;5.186;2022-08-14T09:54:44;12.80;;;6.78;;
72301;SDS011;60235;52.234;5.186;2022-08-14T09:57:22;11.93;;;6.40;;
72301;SDS011;60235;52.234;5.186;2022-08-14T09:59:49;14.48;;;6.93;;
72301;SDS011;60235;52.234;5.186;2022-08-14T10:02:26;10.85;;;6.75;;
72301;SDS011;60235;52.234;5.186;2022-08-14T10:05:09;11.40;;;6.47;;
72301;SDS011;60235;52.234;5.186;2022-08-14T10:07:44;14.18;;;7.53;;
72301;SDS011;60235;52.234;5.186;2022-08-14T10:10:25;11.85;;;7.03;;
72301;SDS011;60235;52.234;5.186;2022-08-14T10:12:52;11.13;;;6.50;;
72301;SDS011;60235;52.234;5.186;2022-08-14T10:15:20;14.43;;;6.57;;
72301;SDS011;60235;52.234;5.186;2022-08-14T10:17:46;10.60;;;6.35;;
72301;SDS011;60235;52.234;5.186;2022-08-14T10:20:13;13.57;;;6.65;;
72301;SDS011;60235;52.234;5.186;2022-08-14T10:22:39;9.88;;;6.28;;
72301;SDS011;60235;52.234;5.186;2022-08-14T10:25:12;9.15;;;6.22;;
72301;SDS011;60235;52.234;5.186;2022-08-14T10:27:39;10.65;;;6.55;;
72301;SDS011;60235;52.234;5.186;2022-08-14T10:30:11;10.63;;;6.50;;
72301;SDS011;60235;52.234;5.186;2022-08-14T10:32:44;12.20;;;6.53;;
72301;SDS011;60235;52.234;5.186;2022-08-14T10:35:11;15.27;;;6.93;;
72301;SDS011;60235;52.234;5.186;2022-08-14T10:37:39;10.27;;;6.13;;
72301;SDS011;60235;52.234;5.186;2022-08-14T10:40:05;11.07;;;6.38;;
72301;SDS011;60235;52.234;5.186;2022-08-14T10:42:36;9.23;;;6.10;;
72301;SDS011;60235;52.234;5.186;2022-08-14T10:45:02;10.52;;;5.82;;
72301;SDS011;60235;52.234;5.186;2022-08-14T10:47:35;9.65;;;5.82;;
72301;SDS011;60235;52.234;5.186;2022-08-14T10:50:01;10.60;;;5.93;;
72301;SDS011;60235;52.234;5.186;2022-08-14T10:52:29;11.70;;;6.20;;
72301;SDS011;60235;52.234;5.186;2022-08-14T10:55:06;8.95;;;5.95;;
72301;SDS011;60235;52.234;5.186;2022-08-14T10:57:33;10.25;;;5.65;;
72301;SDS011;60235;52.234;5.186;2022-08-14T11:00:00;11.85;;;5.28;;
72301;SDS011;60235;52.234;5.186;2022-08-14T11:02:38;9.77;;;5.65;;
72301;SDS011;60235;52.234;5.186;2022-08-14T11:07:31;9.65;;;5.53;;
72301;SDS011;60235;52.234;5.186;2022-08-14T11:09:59;10.13;;;5.30;;
72301;SDS011;60235;52.234;5.186;2022-08-14T11:12:26;12.25;;;5.65;;
72301;SDS011;60235;52.234;5.186;2022-08-14T11:15:03;10.00;;;5.72;;
72301;SDS011;60235;52.234;5.186;2022-08-14T11:17:30;8.80;;;5.05;;
72301;SDS011;60235;52.234;5.186;2022-08-14T11:19:57;9.52;;;5.05;;
72301;SDS011;60235;52.234;5.186;2022-08-14T11:22:24;10.50;;;4.88;;
72301;SDS011;60235;52.234;5.186;2022-08-14T11:24:51;7.57;;;4.93;;
72301;SDS011;60235;52.234;5.186;2022-08-14T11:27:20;9.20;;;5.13;;
72301;SDS011;60235;52.234;5.186;2022-08-14T11:29:47;7.82;;;4.65;;
72301;SDS011;60235;52.234;5.186;2022-08-14T11:32:14;10.73;;;5.20;;
72301;SDS011;60235;52.234;5.186;2022-08-14T11:34:40;8.80;;;4.80;;
72301;SDS011;60235;52.234;5.186;2022-08-14T11:37:10;10.30;;;5.63;;
72301;SDS011;60235;52.234;5.186;2022-08-14T11:39:36;8.60;;;4.10;;
72301;SDS011;60235;52.234;5.186;2022-08-14T11:42:03;7.97;;;4.03;;
72301;SDS011;60235;52.234;5.186;2022-08-14T11:44:29;7.50;;;4.55;;
72301;SDS011;60235;52.234;5.186;2022-08-14T11:46:55;7.05;;;4.28;;
72301;SDS011;60235;52.234;5.186;2022-08-14T11:49:25;9.18;;;4.75;;
72301;SDS011;60235;52.234;5.186;2022-08-14T11:51:53;10.07;;;5.38;;
72301;SDS011;60235;52.234;5.186;2022-08-14T11:54:19;7.82;;;4.65;;
72301;SDS011;60235;52.234;5.186;2022-08-14T11:56:46;8.52;;;4.60;;
72301;SDS011;60235;52.234;5.186;2022-08-14T11:59:16;8.35;;;4.13;;
72301;SDS011;60235;52.234;5.186;2022-08-14T12:01:42;9.10;;;4.10;;
72301;SDS011;60235;52.234;5.186;2022-08-14T12:06:50;7.22;;;3.92;;
72301;SDS011;60235;52.234;5.186;2022-08-14T12:09:32;9.00;;;4.10;;
72301;SDS011;60235;52.234;5.186;2022-08-14T12:11:59;6.70;;;4.30;;
72301;SDS011;60235;52.234;5.186;2022-08-14T12:14:25;8.77;;;4.45;;
72301;SDS011;60235;52.234;5.186;2022-08-14T12:17:05;8.88;;;4.30;;
72301;SDS011;60235;52.234;5.186;2022-08-14T12:19:41;8.65;;;4.05;;
72301;SDS011;60235;52.234;5.186;2022-08-14T12:22:08;7.30;;;4.13;;
72301;SDS011;60235;52.234;5.186;2022-08-14T12:24:34;8.48;;;4.50;;
72301;SDS011;60235;52.234;5.186;2022-08-14T12:27:00;7.93;;;4.32;;
72301;SDS011;60235;52.234;5.186;2022-08-14T12:29:26;8.23;;;4.78;;
72301;SDS011;60235;52.234;5.186;2022-08-14T12:31:59;7.82;;;4.63;;
72301;SDS011;60235;52.234;5.186;2022-08-14T12:34:31;8.52;;;4.70;;
72301;SDS011;60235;52.234;5.186;2022-08-14T12:37:04;7.65;;;4.32;;
72301;SDS011;60235;52.234;5.186;2022-08-14T12:39:30;9.07;;;4.63;;
72301;SDS011;60235;52.234;5.186;2022-08-14T12:42:00;7.55;;;4.40;;
72301;SDS011;60235;52.234;5.186;2022-08-14T12:44:36;7.40;;;3.95;;
72301;SDS011;60235;52.234;5.186;2022-08-14T12:49:29;6.70;;;4.25;;
72301;SDS011;60235;52.234;5.186;2022-08-14T12:51:56;6.88;;;4.55;;
72301;SDS011;60235;52.234;5.186;2022-08-14T12:54:22;10.35;;;4.35;;
72301;SDS011;60235;52.234;5.186;2022-08-14T12:56:49;8.48;;;4.43;;
72301;SDS011;60235;52.234;5.186;2022-08-14T12:59:15;8.73;;;4.30;;
72301;SDS011;60235;52.234;5.186;2022-08-14T13:01:41;7.50;;;4.63;;
72301;SDS011;60235;52.234;5.186;2022-08-14T13:04:11;7.93;;;4.30;;
72301;SDS011;60235;52.234;5.186;2022-08-14T13:06:38;7.13;;;4.28;;
72301;SDS011;60235;52.234;5.186;2022-08-14T13:09:05;7.80;;;4.68;;
72301;SDS011;60235;52.234;5.186;2022-08-14T13:11:38;9.10;;;4.43;;
72301;SDS011;60235;52.234;5.186;2022-08-14T13:14:08;9.25;;;4.47;;
72301;SDS011;60235;52.234;5.186;2022-08-14T13:16:37;9.93;;;4.57;;
72301;SDS011;60235;52.234;5.186;2022-08-14T13:19:03;7.20;;;4.20;;
72301;SDS011;60235;52.234;5.186;2022-08-14T13:21:30;7.30;;;5.15;;
72301;SDS011;60235;52.234;5.186;2022-08-14T13:23:56;6.85;;;4.55;;
72301;SDS011;60235;52.234;5.186;2022-08-14T13:26:23;6.70;;;4.53;;
72301;SDS011;60235;52.234;5.186;2022-08-14T13:28:50;7.55;;;4.78;;
72301;SDS011;60235;52.234;5.186;2022-08-14T13:31:16;9.57;;;4.97;;
72301;SDS011;60235;52.234;5.186;2022-08-14T13:33:44;9.68;;;5.38;;
72301;SDS011;60235;52.234;5.186;2022-08-14T13:36:10;9.18;;;4.75;;
72301;SDS011;60235;52.234;5.186;2022-08-14T13:38:36;11.30;;;4.50;;
72301;SDS011;60235;52.234;5.186;2022-08-14T13:41:04;8.93;;;4.90;;
72301;SDS011;60235;52.234;5.186;2022-08-14T13:43:30;8.48;;;4.55;;
72301;SDS011;60235;52.234;5.186;2022-08-14T13:45:56;7.63;;;4.93;;
72301;SDS011;60235;52.234;5.186;2022-08-14T13:48:22;7.07;;;4.43;;
72301;SDS011;60235;52.234;5.186;2022-08-14T13:50:50;7.53;;;4.95;;
72301;SDS011;60235;52.234;5.186;2022-08-14T13:53:19;8.00;;;4.82;;
72301;SDS011;60235;52.234;5.186;2022-08-14T13:55:46;8.82;;;5.03;;
72301;SDS011;60235;52.234;5.186;2022-08-14T13:58:12;8.00;;;4.50;;
72301;SDS011;60235;52.234;5.186;2022-08-14T14:00:39;8.30;;;4.82;;
72301;SDS011;60235;52.234;5.186;2022-08-14T14:03:05;9.27;;;4.90;;
72301;SDS011;60235;52.234;5.186;2022-08-14T14:05:34;7.68;;;4.68;;
72301;SDS011;60235;52.234;5.186;2022-08-14T14:10:26;9.10;;;4.45;;
72301;SDS011;60235;52.234;5.186;2022-08-14T14:12:52;8.88;;;4.88;;
72301;SDS011;60235;52.234;5.186;2022-08-14T14:15:19;7.25;;;4.03;;
72301;SDS011;60235;52.234;5.186;2022-08-14T14:17:46;6.97;;;4.78;;
72301;SDS011;60235;52.234;5.186;2022-08-14T14:20:13;9.93;;;4.93;;
72301;SDS011;60235;52.234;5.186;2022-08-14T14:22:40;8.23;;;5.25;;
72301;SDS011;60235;52.234;5.186;2022-08-14T14:25:07;9.68;;;5.13;;
72301;SDS011;60235;52.234;5.186;2022-08-14T14:27:33;7.68;;;4.90;;
72301;SDS011;60235;52.234;5.186;2022-08-14T14:30:03;8.98;;;4.88;;
72301;SDS011;60235;52.234;5.186;2022-08-14T14:34:56;8.80;;;4.82;;
72301;SDS011;60235;52.234;5.186;2022-08-14T14:37:25;7.90;;;5.22;;
72301;SDS011;60235;52.234;5.186;2022-08-14T14:39:51;9.25;;;5.05;;
72301;SDS011;60235;52.234;5.186;2022-08-14T14:42:18;8.25;;;4.55;;
72301;SDS011;60235;52.234;5.186;2022-08-14T14:44:44;8.43;;;4.80;;
72301;SDS011;60235;52.234;5.186;2022-08-14T14:47:16;9.07;;;5.18;;
72301;SDS011;60235;52.234;5.186;2022-08-14T14:49:45;12.52;;;4.53;;
72301;SDS011;60235;52.234;5.186;2022-08-14T14:54:40;10.20;;;5.13;;
72301;SDS011;60235;52.234;5.186;2022-08-14T14:57:08;7.82;;;4.47;;
72301;SDS011;60235;52.234;5.186;2022-08-14T14:59:38;7.22;;;4.57;;
72301;SDS011;60235;52.234;5.186;2022-08-14T15:02:04;7.95;;;4.80;;
72301;SDS011;60235;52.234;5.186;2022-08-14T15:04:34;8.85;;;5.07;;
72301;SDS011;60235;52.234;5.186;2022-08-14T15:07:01;7.65;;;4.63;;
72301;SDS011;60235;52.234;5.186;2022-08-14T15:09:27;8.82;;;5.15;;
72301;SDS011;60235;52.234;5.186;2022-08-14T15:11:53;7.20;;;5.05;;